sensor_id;sensor_type;location;lat;lon;timestamp;P1;durP1;ratioP1;P2;durP2;ratioP2
69256;SDS011;56376;53.356;-1.748;2022-09-25T00:01:19;2.23;;;1.13;;
69256;SDS011;56376;53.356;-1.748;2022-09-25T00:03:45;1.70;;;1.13;;
69256;SDS011;56376;53.356;-1.748;2022-09-25T00:06:12;2.40;;;1.23;;
69256;SDS011;56376;53.356;-1.748;2022-09-25T00:08:45;1.90;;;1.30;;
69256;SDS011;56376;53.356;-1.748;2022-09-25T00:11:15;2.47;;;1.27;;
69256;SDS011;56376;53.356;-1.748;2022-09-25T00:13:43;2.60;;;1.40;;
69256;SDS011;56376;53.356;-1.748;2022-09-25T00:16:10;2.83;;;1.23;;
69256;SDS011;56376;53.356;-1.748;2022-09-25T00:18:37;1.00;;;0.90;;
69256;SDS011;56376;53.356;-1.748;2022-09-25T00:21:21;2.40;;;1.20;;
69256;SDS011;56376;53.356;-1.748;2022-09-25T00:23:47;1.43;;;1.10;;
69256;SDS011;56376;53.356;-1.748;2022-09-25T00:26:15;1.57;;;1.10;;
69256;SDS011;56376;53.356;-1.748;2022-09-25T00:28:41;2.17;;;1.57;;
69256;SDS011;56376;53.356;-1.748;2022-09-25T00:31:08;1.90;;;1.40;;
69256;SDS011;56376;53.356;-1.748;2022-09-25T00:33:35;1.83;;;1.20;;
69256;SDS011;56376;53.356;-1.748;2022-09-25T00:36:04;2.10;;;1.50;;
69256;SDS011;56376;53.356;-1.748;2022-09-25T00:38:33;1.37;;;1.27;;
69256;SDS011;56376;53.356;-1.748;2022-09-25T00:40:59;1.73;;;1.47;;
69256;SDS011;56376;53.356;-1.748;2022-09-25T00:51:13;1.30;;;1.07;;
69256;SDS011;56376;53.356;-1.748;2022-09-25T00:53:40;3.23;;;1.50;;
69256;SDS011;56376;53.356;-1.748;2022-09-25T00:56:06;2.43;;;1.70;;
69256;SDS011;56376;53.356;-1.748;2022-09-25T00:58:36;2.40;;;1.20;;
69256;SDS011;56376;53.356;-1.748;2022-09-25T01:01:04;2.40;;;1.50;;
69256;SDS011;56376;53.356;-1.748;2022-09-25T01:03:31;2.40;;;1.33;;
69256;SDS011;56376;53.356;-1.748;2022-09-25T01:05:58;2.20;;;1.37;;
69256;SDS011;56376;53.356;-1.748;2022-09-25T01:08:27;1.43;;;1.20;;
69256;SDS011;56376;53.356;-1.748;2022-09-25T01:10:56;2.60;;;1.37;;
69256;SDS011;56376;53.356;-1.748;2022-09-25T01:13:21;1.67;;;1.10;;
69256;SDS011;56376;53.356;-1.748;2022-09-25T01:18:50;1.27;;;1.17;;
69256;SDS011;56376;53.356;-1.748;2022-09-25T01:26:32;2.00;;;1.10;;
69256;SDS011;56376;53.356;-1.748;2022-09-25T01:29:26;1.63;;;1.10;;
69256;SDS011;56376;53.356;-1.748;2022-09-25T01:32:11;0.90;;;0.80;;
69256;SDS011;56376;53.356;-1.748;2022-09-25T01:43:59;1.10;;;1.00;;
69256;SDS011;56376;53.356;-1.748;2022-09-25T01:46:33;1.70;;;0.90;;
69256;SDS011;56376;53.356;-1.748;2022-09-25T01:49:08;1.00;;;0.90;;
69256;SDS011;56376;53.356;-1.748;2022-09-25T01:51:42;1.33;;;1.00;;
69256;SDS011;56376;53.356;-1.748;2022-09-25T02:02:21;0.97;;;0.80;;
69256;SDS011;56376;53.356;-1.748;2022-09-25T02:05:07;1.60;;;1.23;;
69256;SDS011;56376;53.356;-1.748;2022-09-25T02:07:40;2.00;;;0.80;;
69256;SDS011;56376;53.356;-1.748;2022-09-25T02:10:16;2.08;;;1.05;;
69256;SDS011;56376;53.356;-1.748;2022-09-25T02:12:53;1.30;;;1.00;;
69256;SDS011;56376;53.356;-1.748;2022-09-25T02:15:24;1.67;;;0.90;;
69256;SDS011;56376;53.356;-1.748;2022-09-25T02:17:55;1.10;;;0.90;;
69256;SDS011;56376;53.356;-1.748;2022-09-25T02:20:42;2.13;;;0.93;;
69256;SDS011;56376;53.356;-1.748;2022-09-25T02:23:21;1.93;;;0.90;;
69256;SDS011;56376;53.356;-1.748;2022-09-25T02:26:06;2.57;;;1.00;;
69256;SDS011;56376;53.356;-1.748;2022-09-25T02:28:33;1.43;;;1.33;;
69256;SDS011;56376;53.356;-1.748;2022-09-25T02:31:01;0.80;;;0.80;;
69256;SDS011;56376;53.356;-1.748;2022-09-25T02:33:30;0.73;;;0.73;;
69256;SDS011;56376;53.356;-1.748;2022-09-25T02:35:56;1.80;;;1.10;;
69256;SDS011;56376;53.356;-1.748;2022-09-25T02:38:24;1.20;;;0.77;;
69256;SDS011;56376;53.356;-1.748;2022-09-25T02:40:52;2.87;;;1.20;;
69256;SDS011;56376;53.356;-1.748;2022-09-25T02:48:54;1.27;;;0.80;;
69256;SDS011;56376;53.356;-1.748;2022-09-25T02:54:09;2.13;;;1.10;;
69256;SDS011;56376;53.356;-1.748;2022-09-25T02:59:37;1.60;;;1.10;;
69256;SDS011;56376;53.356;-1.748;2022-09-25T03:02:09;1.40;;;1.27;;
69256;SDS011;56376;53.356;-1.748;2022-09-25T03:04:36;1.67;;;0.97;;
69256;SDS011;56376;53.356;-1.748;2022-09-25T03:07:04;1.37;;;1.27;;
69256;SDS011;56376;53.356;-1.748;2022-09-25T03:09:31;1.73;;;1.37;;
69256;SDS011;56376;53.356;-1.748;2022-09-25T03:12:00;1.13;;;0.90;;
69256;SDS011;56376;53.356;-1.748;2022-09-25T03:14:27;1.40;;;1.10;;
69256;SDS011;56376;53.356;-1.748;2022-09-25T03:16:53;1.33;;;1.10;;
69256;SDS011;56376;53.356;-1.748;2022-09-25T03:19:21;1.40;;;1.07;;
69256;SDS011;56376;53.356;-1.748;2022-09-25T03:21:49;1.77;;;1.10;;
69256;SDS011;56376;53.356;-1.748;2022-09-25T03:24:15;1.40;;;1.20;;
69256;SDS011;56376;53.356;-1.748;2022-09-25T03:26:41;1.53;;;1.20;;
69256;SDS011;56376;53.356;-1.748;2022-09-25T03:29:07;1.93;;;1.23;;
69256;SDS011;56376;53.356;-1.748;2022-09-25T03:31:33;3.07;;;1.10;;
69256;SDS011;56376;53.356;-1.748;2022-09-25T03:33:59;1.20;;;1.07;;
69256;SDS011;56376;53.356;-1.748;2022-09-25T03:36:26;1.40;;;0.97;;
69256;SDS011;56376;53.356;-1.748;2022-09-25T03:38:53;1.37;;;0.90;;
69256;SDS011;56376;53.356;-1.748;2022-09-25T03:41:24;1.30;;;1.13;;
69256;SDS011;56376;53.356;-1.748;2022-09-25T03:43:52;1.37;;;1.20;;
69256;SDS011;56376;53.356;-1.748;2022-09-25T03:46:19;1.20;;;1.10;;
69256;SDS011;56376;53.356;-1.748;2022-09-25T03:48:49;1.70;;;0.97;;
69256;SDS011;56376;53.356;-1.748;2022-09-25T03:51:16;1.70;;;1.10;;
69256;SDS011;56376;53.356;-1.748;2022-09-25T03:53:43;1.20;;;1.10;;
69256;SDS011;56376;53.356;-1.748;2022-09-25T03:56:12;1.30;;;1.20;;
69256;SDS011;56376;53.356;-1.748;2022-09-25T03:58:41;1.40;;;1.30;;
69256;SDS011;56376;53.356;-1.748;2022-09-25T04:01:06;1.37;;;1.20;;
69256;SDS011;56376;53.356;-1.748;2022-09-25T04:03:32;2.53;;;1.53;;
69256;SDS011;56376;53.356;-1.748;2022-09-25T04:05:59;2.37;;;1.37;;
69256;SDS011;56376;53.356;-1.748;2022-09-25T04:08:26;1.20;;;1.10;;
69256;SDS011;56376;53.356;-1.748;2022-09-25T04:10:56;2.03;;;1.27;;
69256;SDS011;56376;53.356;-1.748;2022-09-25T04:13:26;1.63;;;1.33;;
69256;SDS011;56376;53.356;-1.748;2022-09-25T04:15:54;1.47;;;0.90;;
69256;SDS011;56376;53.356;-1.748;2022-09-25T04:18:20;1.73;;;1.30;;
69256;SDS011;56376;53.356;-1.748;2022-09-25T04:20:46;1.47;;;1.33;;
69256;SDS011;56376;53.356;-1.748;2022-09-25T04:23:11;2.20;;;1.10;;
69256;SDS011;56376;53.356;-1.748;2022-09-25T04:25:37;2.50;;;1.20;;
69256;SDS011;56376;53.356;-1.748;2022-09-25T04:28:02;1.63;;;1.00;;
69256;SDS011;56376;53.356;-1.748;2022-09-25T04:30:28;2.77;;;1.37;;
69256;SDS011;56376;53.356;-1.748;2022-09-25T04:32:54;1.30;;;1.10;;
69256;SDS011;56376;53.356;-1.748;2022-09-25T04:35:38;1.33;;;1.20;;
69256;SDS011;56376;53.356;-1.748;2022-09-25T04:38:05;1.50;;;1.13;;
69256;SDS011;56376;53.356;-1.748;2022-09-25T04:40:31;1.43;;;1.10;;
69256;SDS011;56376;53.356;-1.748;2022-09-25T04:43:00;1.47;;;1.30;;
69256;SDS011;56376;53.356;-1.748;2022-09-25T04:45:27;1.10;;;1.00;;
69256;SDS011;56376;53.356;-1.748;2022-09-25T04:47:55;1.53;;;1.23;;
69256;SDS011;56376;53.356;-1.748;2022-09-25T04:50:22;1.70;;;1.30;;
69256;SDS011;56376;53.356;-1.748;2022-09-25T04:52:49;1.83;;;1.57;;
69256;SDS011;56376;53.356;-1.748;2022-09-25T04:55:18;2.10;;;1.30;;
69256;SDS011;56376;53.356;-1.748;2022-09-25T04:57:57;1.70;;;1.30;;
69256;SDS011;56376;53.356;-1.748;2022-09-25T05:00:26;3.73;;;1.57;;
69256;SDS011;56376;53.356;-1.748;2022-09-25T05:02:53;3.07;;;1.30;;
69256;SDS011;56376;53.356;-1.748;2022-09-25T05:05:19;1.93;;;1.13;;
69256;SDS011;56376;53.356;-1.748;2022-09-25T05:07:51;0.87;;;0.80;;
69256;SDS011;56376;53.356;-1.748;2022-09-25T05:10:18;1.23;;;1.07;;
69256;SDS011;56376;53.356;-1.748;2022-09-25T05:12:45;1.57;;;1.10;;
69256;SDS011;56376;53.356;-1.748;2022-09-25T05:15:11;1.33;;;1.10;;
69256;SDS011;56376;53.356;-1.748;2022-09-25T05:17:37;1.30;;;1.20;;
69256;SDS011;56376;53.356;-1.748;2022-09-25T05:20:03;2.10;;;1.20;;
69256;SDS011;56376;53.356;-1.748;2022-09-25T05:22:28;1.67;;;1.20;;
69256;SDS011;56376;53.356;-1.748;2022-09-25T05:24:54;1.43;;;1.07;;
69256;SDS011;56376;53.356;-1.748;2022-09-25T05:27:19;1.40;;;1.27;;
69256;SDS011;56376;53.356;-1.748;2022-09-25T05:29:47;2.57;;;1.13;;
69256;SDS011;56376;53.356;-1.748;2022-09-25T05:32:13;1.33;;;1.20;;
69256;SDS011;56376;53.356;-1.748;2022-09-25T05:34:39;1.47;;;1.30;;
69256;SDS011;56376;53.356;-1.748;2022-09-25T05:37:04;2.40;;;1.47;;
69256;SDS011;56376;53.356;-1.748;2022-09-25T05:39:30;1.90;;;1.30;;
69256;SDS011;56376;53.356;-1.748;2022-09-25T05:41:55;2.00;;;1.30;;
69256;SDS011;56376;53.356;-1.748;2022-09-25T05:44:21;1.10;;;1.00;;
69256;SDS011;56376;53.356;-1.748;2022-09-25T05:46:50;1.57;;;1.27;;
69256;SDS011;56376;53.356;-1.748;2022-09-25T05:49:15;1.60;;;1.20;;
69256;SDS011;56376;53.356;-1.748;2022-09-25T05:51:40;1.23;;;1.10;;
69256;SDS011;56376;53.356;-1.748;2022-09-25T05:54:06;3.53;;;1.27;;
69256;SDS011;56376;53.356;-1.748;2022-09-25T05:56:31;1.30;;;1.10;;
69256;SDS011;56376;53.356;-1.748;2022-09-25T05:58:57;1.17;;;1.07;;
69256;SDS011;56376;53.356;-1.748;2022-09-25T06:01:22;1.07;;;0.97;;
69256;SDS011;56376;53.356;-1.748;2022-09-25T06:03:48;1.93;;;1.30;;
69256;SDS011;56376;53.356;-1.748;2022-09-25T06:06:13;1.47;;;1.03;;
69256;SDS011;56376;53.356;-1.748;2022-09-25T06:08:38;1.10;;;0.93;;
69256;SDS011;56376;53.356;-1.748;2022-09-25T06:11:04;1.37;;;1.10;;
69256;SDS011;56376;53.356;-1.748;2022-09-25T06:13:30;2.50;;;0.97;;
69256;SDS011;56376;53.356;-1.748;2022-09-25T06:15:58;1.33;;;1.00;;
69256;SDS011;56376;53.356;-1.748;2022-09-25T06:18:24;1.80;;;1.23;;
69256;SDS011;56376;53.356;-1.748;2022-09-25T06:20:50;1.43;;;0.97;;
69256;SDS011;56376;53.356;-1.748;2022-09-25T06:23:16;1.33;;;0.97;;
69256;SDS011;56376;53.356;-1.748;2022-09-25T06:25:42;1.10;;;0.90;;
69256;SDS011;56376;53.356;-1.748;2022-09-25T06:28:09;0.83;;;0.80;;
69256;SDS011;56376;53.356;-1.748;2022-09-25T06:30:36;1.83;;;0.73;;
69256;SDS011;56376;53.356;-1.748;2022-09-25T06:33:03;2.27;;;1.10;;
69256;SDS011;56376;53.356;-1.748;2022-09-25T06:35:47;3.03;;;1.23;;
69256;SDS011;56376;53.356;-1.748;2022-09-25T06:38:14;1.20;;;1.10;;
69256;SDS011;56376;53.356;-1.748;2022-09-25T06:40:41;2.13;;;0.90;;
69256;SDS011;56376;53.356;-1.748;2022-09-25T06:43:11;1.30;;;0.93;;
69256;SDS011;56376;53.356;-1.748;2022-09-25T06:45:39;1.73;;;0.93;;
69256;SDS011;56376;53.356;-1.748;2022-09-25T06:48:09;3.90;;;1.30;;
69256;SDS011;56376;53.356;-1.748;2022-09-25T06:50:41;1.43;;;0.90;;
69256;SDS011;56376;53.356;-1.748;2022-09-25T06:53:10;1.40;;;1.10;;
69256;SDS011;56376;53.356;-1.748;2022-09-25T06:55:36;2.00;;;1.10;;
69256;SDS011;56376;53.356;-1.748;2022-09-25T06:58:03;1.53;;;1.13;;
69256;SDS011;56376;53.356;-1.748;2022-09-25T07:00:29;1.53;;;1.07;;
69256;SDS011;56376;53.356;-1.748;2022-09-25T07:02:56;2.17;;;0.97;;
69256;SDS011;56376;53.356;-1.748;2022-09-25T07:08:09;2.43;;;0.97;;
69256;SDS011;56376;53.356;-1.748;2022-09-25T07:10:37;1.63;;;1.37;;
69256;SDS011;56376;53.356;-1.748;2022-09-25T07:13:02;2.37;;;1.40;;
69256;SDS011;56376;53.356;-1.748;2022-09-25T07:15:28;1.47;;;1.20;;
69256;SDS011;56376;53.356;-1.748;2022-09-25T07:17:55;2.40;;;1.20;;
69256;SDS011;56376;53.356;-1.748;2022-09-25T07:20:20;1.17;;;1.07;;
69256;SDS011;56376;53.356;-1.748;2022-09-25T07:22:46;1.03;;;0.93;;
69256;SDS011;56376;53.356;-1.748;2022-09-25T07:25:11;1.80;;;1.23;;
69256;SDS011;56376;53.356;-1.748;2022-09-25T07:27:37;1.40;;;1.30;;
69256;SDS011;56376;53.356;-1.748;2022-09-25T07:30:03;1.17;;;1.00;;
69256;SDS011;56376;53.356;-1.748;2022-09-25T07:32:29;1.43;;;1.00;;
69256;SDS011;56376;53.356;-1.748;2022-09-25T07:34:55;1.10;;;1.00;;
69256;SDS011;56376;53.356;-1.748;2022-09-25T07:37:22;1.53;;;1.10;;
69256;SDS011;56376;53.356;-1.748;2022-09-25T07:39:48;1.30;;;1.13;;
69256;SDS011;56376;53.356;-1.748;2022-09-25T07:42:14;2.43;;;1.50;;
69256;SDS011;56376;53.356;-1.748;2022-09-25T07:44:40;1.90;;;1.10;;
69256;SDS011;56376;53.356;-1.748;2022-09-25T07:47:06;2.00;;;1.67;;
69256;SDS011;56376;53.356;-1.748;2022-09-25T07:49:33;2.77;;;1.23;;
69256;SDS011;56376;53.356;-1.748;2022-09-25T07:51:59;2.50;;;1.30;;
69256;SDS011;56376;53.356;-1.748;2022-09-25T07:54:25;1.53;;;1.03;;
69256;SDS011;56376;53.356;-1.748;2022-09-25T07:56:50;1.90;;;1.23;;
69256;SDS011;56376;53.356;-1.748;2022-09-25T07:59:16;2.10;;;1.40;;
69256;SDS011;56376;53.356;-1.748;2022-09-25T08:01:41;2.30;;;1.53;;
69256;SDS011;56376;53.356;-1.748;2022-09-25T08:04:06;1.73;;;1.33;;
69256;SDS011;56376;53.356;-1.748;2022-09-25T08:06:35;4.37;;;1.90;;
69256;SDS011;56376;53.356;-1.748;2022-09-25T08:09:00;2.87;;;1.80;;
69256;SDS011;56376;53.356;-1.748;2022-09-25T08:11:26;3.13;;;2.30;;
69256;SDS011;56376;53.356;-1.748;2022-09-25T08:13:55;3.47;;;2.27;;
69256;SDS011;56376;53.356;-1.748;2022-09-25T08:16:21;3.50;;;2.37;;
69256;SDS011;56376;53.356;-1.748;2022-09-25T08:18:47;3.70;;;2.70;;
69256;SDS011;56376;53.356;-1.748;2022-09-25T08:21:15;3.20;;;2.40;;
69256;SDS011;56376;53.356;-1.748;2022-09-25T08:23:42;4.03;;;3.23;;
69256;SDS011;56376;53.356;-1.748;2022-09-25T08:26:09;4.33;;;3.03;;
69256;SDS011;56376;53.356;-1.748;2022-09-25T08:28:35;3.97;;;2.80;;
69256;SDS011;56376;53.356;-1.748;2022-09-25T08:31:00;3.43;;;2.77;;
69256;SDS011;56376;53.356;-1.748;2022-09-25T08:33:28;3.00;;;2.30;;
69256;SDS011;56376;53.356;-1.748;2022-09-25T08:35:54;3.50;;;2.70;;
69256;SDS011;56376;53.356;-1.748;2022-09-25T08:38:21;3.80;;;3.40;;
69256;SDS011;56376;53.356;-1.748;2022-09-25T08:40:53;3.50;;;2.70;;
69256;SDS011;56376;53.356;-1.748;2022-09-25T08:43:22;2.53;;;2.20;;
69256;SDS011;56376;53.356;-1.748;2022-09-25T08:45:50;3.00;;;2.50;;
69256;SDS011;56376;53.356;-1.748;2022-09-25T08:48:43;2.97;;;2.50;;
69256;SDS011;56376;53.356;-1.748;2022-09-25T08:51:29;3.93;;;2.40;;
69256;SDS011;56376;53.356;-1.748;2022-09-25T08:53:56;2.93;;;2.00;;
69256;SDS011;56376;53.356;-1.748;2022-09-25T08:56:23;2.40;;;2.20;;
69256;SDS011;56376;53.356;-1.748;2022-09-25T08:59:07;2.50;;;2.30;;
69256;SDS011;56376;53.356;-1.748;2022-09-25T09:01:49;3.27;;;2.37;;
69256;SDS011;56376;53.356;-1.748;2022-09-25T09:04:23;2.47;;;2.27;;
69256;SDS011;56376;53.356;-1.748;2022-09-25T09:09:24;3.40;;;2.43;;
69256;SDS011;56376;53.356;-1.748;2022-09-25T09:12:00;2.40;;;2.20;;
69256;SDS011;56376;53.356;-1.748;2022-09-25T09:14:34;2.92;;;2.30;;
69256;SDS011;56376;53.356;-1.748;2022-09-25T09:17:17;4.18;;;2.50;;
69256;SDS011;56376;53.356;-1.748;2022-09-25T09:19:45;4.15;;;2.40;;
69256;SDS011;56376;53.356;-1.748;2022-09-25T09:22:20;4.85;;;2.30;;
69256;SDS011;56376;53.356;-1.748;2022-09-25T09:30:15;3.28;;;2.53;;
69256;SDS011;56376;53.356;-1.748;2022-09-25T09:38:55;3.65;;;2.08;;
69256;SDS011;56376;53.356;-1.748;2022-09-25T09:49:51;3.78;;;2.03;;
69256;SDS011;56376;53.356;-1.748;2022-09-25T09:52:22;3.72;;;2.17;;
69256;SDS011;56376;53.356;-1.748;2022-09-25T09:57:43;2.38;;;1.80;;
69256;SDS011;56376;53.356;-1.748;2022-09-25T10:00:16;2.42;;;1.60;;
69256;SDS011;56376;53.356;-1.748;2022-09-25T10:02:54;3.45;;;1.75;;
69256;SDS011;56376;53.356;-1.748;2022-09-25T10:07:49;2.28;;;1.70;;
69256;SDS011;56376;53.356;-1.748;2022-09-25T10:10:16;2.58;;;1.60;;
69256;SDS011;56376;53.356;-1.748;2022-09-25T10:12:45;3.33;;;1.60;;
69256;SDS011;56376;53.356;-1.748;2022-09-25T10:15:28;3.40;;;1.77;;
69256;SDS011;56376;53.356;-1.748;2022-09-25T10:18:08;4.78;;;2.25;;
69256;SDS011;56376;53.356;-1.748;2022-09-25T10:23:30;2.30;;;1.42;;
69256;SDS011;56376;53.356;-1.748;2022-09-25T10:26:01;2.03;;;1.60;;
69256;SDS011;56376;53.356;-1.748;2022-09-25T10:28:28;5.53;;;2.05;;
69256;SDS011;56376;53.356;-1.748;2022-09-25T10:30:56;3.42;;;1.63;;
69256;SDS011;56376;53.356;-1.748;2022-09-25T10:33:27;2.22;;;1.50;;
69256;SDS011;56376;53.356;-1.748;2022-09-25T10:35:54;2.20;;;1.67;;
69256;SDS011;56376;53.356;-1.748;2022-09-25T10:38:35;3.40;;;1.73;;
69256;SDS011;56376;53.356;-1.748;2022-09-25T10:41:11;3.03;;;2.35;;
69256;SDS011;56376;53.356;-1.748;2022-09-25T10:43:48;3.55;;;1.80;;
69256;SDS011;56376;53.356;-1.748;2022-09-25T10:46:18;3.15;;;1.90;;
69256;SDS011;56376;53.356;-1.748;2022-09-25T10:49:13;2.95;;;1.88;;
69256;SDS011;56376;53.356;-1.748;2022-09-25T10:52:11;2.42;;;1.55;;
69256;SDS011;56376;53.356;-1.748;2022-09-25T10:54:38;4.20;;;1.63;;
69256;SDS011;56376;53.356;-1.748;2022-09-25T10:57:14;4.28;;;1.70;;
69256;SDS011;56376;53.356;-1.748;2022-09-25T10:59:47;4.20;;;1.60;;
69256;SDS011;56376;53.356;-1.748;2022-09-25T11:02:48;3.53;;;1.60;;
69256;SDS011;56376;53.356;-1.748;2022-09-25T11:05:17;4.13;;;1.90;;
69256;SDS011;56376;53.356;-1.748;2022-09-25T11:07:49;4.72;;;1.60;;
69256;SDS011;56376;53.356;-1.748;2022-09-25T11:10:23;3.30;;;1.88;;
69256;SDS011;56376;53.356;-1.748;2022-09-25T11:12:52;2.30;;;1.70;;
69256;SDS011;56376;53.356;-1.748;2022-09-25T11:15:19;1.95;;;1.55;;
69256;SDS011;56376;53.356;-1.748;2022-09-25T11:17:51;3.40;;;1.73;;
69256;SDS011;56376;53.356;-1.748;2022-09-25T11:20:22;5.15;;;2.03;;
69256;SDS011;56376;53.356;-1.748;2022-09-25T11:25:45;3.10;;;1.65;;
69256;SDS011;56376;53.356;-1.748;2022-09-25T11:28:29;2.42;;;1.50;;
69256;SDS011;56376;53.356;-1.748;2022-09-25T11:36:58;4.90;;;1.92;;
69256;SDS011;56376;53.356;-1.748;2022-09-25T11:39:39;6.45;;;1.95;;
69256;SDS011;56376;53.356;-1.748;2022-09-25T11:45:24;2.95;;;1.92;;
69256;SDS011;56376;53.356;-1.748;2022-09-25T11:47:59;4.28;;;2.40;;
69256;SDS011;56376;53.356;-1.748;2022-09-25T11:50:36;4.45;;;1.90;;
69256;SDS011;56376;53.356;-1.748;2022-09-25T11:53:17;5.03;;;2.00;;
69256;SDS011;56376;53.356;-1.748;2022-09-25T11:59:05;5.43;;;2.00;;
69256;SDS011;56376;53.356;-1.748;2022-09-25T12:01:56;7.43;;;2.30;;
69256;SDS011;56376;53.356;-1.748;2022-09-25T12:04:44;4.60;;;1.88;;
69256;SDS011;56376;53.356;-1.748;2022-09-25T12:09:53;4.88;;;2.15;;
69256;SDS011;56376;53.356;-1.748;2022-09-25T12:12:39;4.20;;;1.98;;
69256;SDS011;56376;53.356;-1.748;2022-09-25T12:15:58;2.88;;;1.40;;
69256;SDS011;56376;53.356;-1.748;2022-09-25T12:21:01;4.35;;;2.33;;
69256;SDS011;56376;53.356;-1.748;2022-09-25T12:23:42;4.22;;;2.58;;
69256;SDS011;56376;53.356;-1.748;2022-09-25T12:40:00;4.20;;;2.08;;
69256;SDS011;56376;53.356;-1.748;2022-09-25T12:45:17;4.72;;;2.17;;
69256;SDS011;56376;53.356;-1.748;2022-09-25T12:47:57;5.18;;;1.73;;
69256;SDS011;56376;53.356;-1.748;2022-09-25T12:50:30;3.88;;;1.83;;
69256;SDS011;56376;53.356;-1.748;2022-09-25T12:53:10;3.38;;;1.75;;
69256;SDS011;56376;53.356;-1.748;2022-09-25T12:55:41;5.82;;;3.05;;
69256;SDS011;56376;53.356;-1.748;2022-09-25T13:00:37;5.45;;;2.00;;
69256;SDS011;56376;53.356;-1.748;2022-09-25T13:06:02;5.88;;;2.58;;
69256;SDS011;56376;53.356;-1.748;2022-09-25T13:08:34;5.47;;;2.00;;
69256;SDS011;56376;53.356;-1.748;2022-09-25T13:11:05;4.55;;;2.30;;
69256;SDS011;56376;53.356;-1.748;2022-09-25T13:13:42;7.35;;;2.97;;
69256;SDS011;56376;53.356;-1.748;2022-09-25T13:16:18;5.15;;;2.25;;
69256;SDS011;56376;53.356;-1.748;2022-09-25T13:18:47;4.65;;;2.05;;
69256;SDS011;56376;53.356;-1.748;2022-09-25T13:21:41;5.40;;;2.47;;
69256;SDS011;56376;53.356;-1.748;2022-09-25T13:24:09;3.80;;;2.28;;
69256;SDS011;56376;53.356;-1.748;2022-09-25T13:26:50;3.60;;;2.00;;
69256;SDS011;56376;53.356;-1.748;2022-09-25T13:29:24;3.47;;;1.88;;
69256;SDS011;56376;53.356;-1.748;2022-09-25T13:32:54;5.10;;;2.30;;
69256;SDS011;56376;53.356;-1.748;2022-09-25T13:35:05;3.85;;;1.92;;
69256;SDS011;56376;53.356;-1.748;2022-09-25T13:37:40;4.82;;;2.20;;
69256;SDS011;56376;53.356;-1.748;2022-09-25T13:40:08;2.88;;;2.08;;
69256;SDS011;56376;53.356;-1.748;2022-09-25T13:43:19;2.50;;;1.67;;
69256;SDS011;56376;53.356;-1.748;2022-09-25T13:45:45;8.75;;;2.20;;
69256;SDS011;56376;53.356;-1.748;2022-09-25T13:48:33;4.75;;;1.70;;
69256;SDS011;56376;53.356;-1.748;2022-09-25T13:53:50;3.83;;;1.73;;
69256;SDS011;56376;53.356;-1.748;2022-09-25T14:01:51;2.50;;;1.38;;
69256;SDS011;56376;53.356;-1.748;2022-09-25T14:04:19;2.38;;;1.65;;
69256;SDS011;56376;53.356;-1.748;2022-09-25T14:06:51;2.15;;;1.88;;
69256;SDS011;56376;53.356;-1.748;2022-09-25T14:09:23;5.07;;;1.80;;
69256;SDS011;56376;53.356;-1.748;2022-09-25T14:14:42;2.70;;;1.70;;
69256;SDS011;56376;53.356;-1.748;2022-09-25T14:17:17;4.57;;;2.42;;
69256;SDS011;56376;53.356;-1.748;2022-09-25T14:19:45;8.07;;;2.38;;
69256;SDS011;56376;53.356;-1.748;2022-09-25T14:22:18;4.95;;;2.25;;
69256;SDS011;56376;53.356;-1.748;2022-09-25T14:24:51;4.30;;;2.13;;
69256;SDS011;56376;53.356;-1.748;2022-09-25T14:27:19;9.38;;;2.80;;
69256;SDS011;56376;53.356;-1.748;2022-09-25T14:29:48;5.55;;;2.30;;
69256;SDS011;56376;53.356;-1.748;2022-09-25T14:32:17;5.53;;;2.03;;
69256;SDS011;56376;53.356;-1.748;2022-09-25T14:35:02;2.95;;;2.08;;
69256;SDS011;56376;53.356;-1.748;2022-09-25T14:37:56;6.47;;;2.50;;
69256;SDS011;56376;53.356;-1.748;2022-09-25T14:46:07;4.65;;;1.85;;
69256;SDS011;56376;53.356;-1.748;2022-09-25T14:48:43;5.82;;;2.58;;
69256;SDS011;56376;53.356;-1.748;2022-09-25T14:51:14;3.95;;;1.88;;
69256;SDS011;56376;53.356;-1.748;2022-09-25T14:53:50;4.13;;;1.70;;
69256;SDS011;56376;53.356;-1.748;2022-09-25T14:56:21;4.38;;;2.15;;
69256;SDS011;56376;53.356;-1.748;2022-09-25T14:58:49;3.55;;;1.90;;
69256;SDS011;56376;53.356;-1.748;2022-09-25T15:01:26;4.93;;;1.80;;
69256;SDS011;56376;53.356;-1.748;2022-09-25T15:03:55;4.10;;;2.00;;
69256;SDS011;56376;53.356;-1.748;2022-09-25T15:06:33;7.70;;;2.38;;
69256;SDS011;56376;53.356;-1.748;2022-09-25T15:09:00;3.83;;;1.73;;
69256;SDS011;56376;53.356;-1.748;2022-09-25T15:11:36;7.43;;;1.85;;
69256;SDS011;56376;53.356;-1.748;2022-09-25T15:14:16;6.20;;;1.85;;
69256;SDS011;56376;53.356;-1.748;2022-09-25T15:16:43;3.88;;;1.90;;
69256;SDS011;56376;53.356;-1.748;2022-09-25T15:21:58;4.65;;;1.65;;
69256;SDS011;56376;53.356;-1.748;2022-09-25T15:24:29;4.93;;;2.10;;
69256;SDS011;56376;53.356;-1.748;2022-09-25T15:29:32;4.68;;;2.17;;
69256;SDS011;56376;53.356;-1.748;2022-09-25T15:32:02;7.57;;;2.80;;
69256;SDS011;56376;53.356;-1.748;2022-09-25T15:34:29;4.32;;;2.60;;
69256;SDS011;56376;53.356;-1.748;2022-09-25T15:39:45;7.68;;;1.92;;
69256;SDS011;56376;53.356;-1.748;2022-09-25T15:42:11;5.05;;;2.03;;
69256;SDS011;56376;53.356;-1.748;2022-09-25T15:44:40;8.60;;;2.20;;
69256;SDS011;56376;53.356;-1.748;2022-09-25T15:47:05;3.65;;;1.80;;
69256;SDS011;56376;53.356;-1.748;2022-09-25T15:50:13;2.90;;;1.50;;
69256;SDS011;56376;53.356;-1.748;2022-09-25T15:52:47;2.80;;;1.58;;
69256;SDS011;56376;53.356;-1.748;2022-09-25T15:55:15;5.90;;;2.08;;
69256;SDS011;56376;53.356;-1.748;2022-09-25T15:57:41;6.25;;;1.95;;
69256;SDS011;56376;53.356;-1.748;2022-09-25T16:00:14;2.65;;;2.00;;
69256;SDS011;56376;53.356;-1.748;2022-09-25T16:03:03;4.32;;;1.60;;
69256;SDS011;56376;53.356;-1.748;2022-09-25T16:05:55;2.53;;;1.80;;
69256;SDS011;56376;53.356;-1.748;2022-09-25T16:10:49;3.28;;;1.85;;
69256;SDS011;56376;53.356;-1.748;2022-09-25T16:13:40;2.85;;;1.88;;
69256;SDS011;56376;53.356;-1.748;2022-09-25T16:16:27;3.08;;;1.65;;
69256;SDS011;56376;53.356;-1.748;2022-09-25T16:18:58;2.50;;;1.50;;
69256;SDS011;56376;53.356;-1.748;2022-09-25T16:21:45;2.70;;;1.70;;
69256;SDS011;56376;53.356;-1.748;2022-09-25T16:24:16;5.32;;;1.70;;
69256;SDS011;56376;53.356;-1.748;2022-09-25T16:26:54;2.50;;;1.60;;
69256;SDS011;56376;53.356;-1.748;2022-09-25T16:29:25;5.15;;;1.60;;
69256;SDS011;56376;53.356;-1.748;2022-09-25T16:31:53;3.38;;;1.65;;
69256;SDS011;56376;53.356;-1.748;2022-09-25T16:34:29;5.57;;;1.77;;
69256;SDS011;56376;53.356;-1.748;2022-09-25T16:37:01;2.40;;;1.60;;
69256;SDS011;56376;53.356;-1.748;2022-09-25T16:39:37;3.13;;;1.65;;
69256;SDS011;56376;53.356;-1.748;2022-09-25T16:42:22;2.70;;;1.70;;
69256;SDS011;56376;53.356;-1.748;2022-09-25T16:45:03;3.85;;;1.60;;
69256;SDS011;56376;53.356;-1.748;2022-09-25T16:47:38;3.38;;;2.10;;
69256;SDS011;56376;53.356;-1.748;2022-09-25T16:50:07;2.35;;;1.35;;
69256;SDS011;56376;53.356;-1.748;2022-09-25T16:52:36;5.00;;;1.80;;
69256;SDS011;56376;53.356;-1.748;2022-09-25T16:55:07;3.20;;;1.90;;
69256;SDS011;56376;53.356;-1.748;2022-09-25T16:57:38;2.05;;;1.50;;
69256;SDS011;56376;53.356;-1.748;2022-09-25T17:00:03;3.53;;;1.50;;
69256;SDS011;56376;53.356;-1.748;2022-09-25T17:02:31;3.50;;;1.70;;
69256;SDS011;56376;53.356;-1.748;2022-09-25T17:05:03;7.65;;;1.67;;
69256;SDS011;56376;53.356;-1.748;2022-09-25T17:07:31;3.10;;;1.52;;
69256;SDS011;56376;53.356;-1.748;2022-09-25T17:09:56;3.67;;;1.60;;
69256;SDS011;56376;53.356;-1.748;2022-09-25T17:12:23;4.88;;;1.67;;
69256;SDS011;56376;53.356;-1.748;2022-09-25T17:14:50;2.95;;;1.55;;
69256;SDS011;56376;53.356;-1.748;2022-09-25T17:17:17;4.03;;;1.70;;
69256;SDS011;56376;53.356;-1.748;2022-09-25T17:19:45;5.15;;;2.15;;
69256;SDS011;56376;53.356;-1.748;2022-09-25T17:22:11;3.00;;;1.45;;
69256;SDS011;56376;53.356;-1.748;2022-09-25T17:24:36;4.68;;;1.65;;